Time;durP1;ratioP1;P1;durP2;ratioP2;P2;SDS_P1;SDS_P2;PMS_P1;PMS_P2;Temp;Humidity;BMP_temperature;BMP_pressure;BME280_temperature;BME280_humidity;BME280_pressure;Samples;Min_cycle;Max_cycle;Signal;HPM_P1;HPM_P2
2024/03/22 00:01:52;;;;;;;38.72;34.53;;;9.70;99.90;;;;;;5046831;28;20048;-90
2024/03/22 00:04:18;;;;;;;39.72;35.42;;;9.70;99.90;;;;;;5052481;28;20923;-90
2024/03/22 00:06:46;;;;;;;41.00;36.40;;;9.70;99.90;;;;;;5045799;28;20086;-90
2024/03/22 00:09:13;;;;;;;40.65;36.15;;;9.70;99.90;;;;;;5043658;28;20072;-90
2024/03/22 00:11:40;;;;;;;41.75;37.30;;;9.70;99.90;;;;;;5064085;28;20051;-88
2024/03/22 00:14:06;;;;;;;41.95;37.50;;;9.70;99.90;;;;;;5052095;28;20041;-88
2024/03/22 00:16:32;;;;;;;42.72;37.78;;;9.70;99.90;;;;;;5058121;28;20070;-91
2024/03/22 00:18:58;;;;;;;42.35;37.75;;;9.70;99.90;;;;;;5050669;28;21004;-91
2024/03/22 00:21:24;;;;;;;44.08;39.28;;;9.70;99.90;;;;;;5052793;28;20036;-89
2024/03/22 00:23:50;;;;;;;42.90;38.20;;;9.70;99.90;;;;;;5062216;28;20297;-89
2024/03/22 00:26:15;;;;;;;43.00;38.33;;;9.70;99.90;;;;;;5066742;28;20040;-88
2024/03/22 00:28:41;;;;;;;43.58;38.85;;;9.70;99.90;;;;;;5052180;28;20036;-88
2024/03/22 00:31:11;;;;;;;43.20;38.17;;;9.80;99.90;;;;;;5077594;28;20142;-87
2024/03/22 00:33:37;;;;;;;44.60;39.45;;;9.80;99.90;;;;;;5068438;28;20101;-88
2024/03/22 00:36:06;;;;;;;47.85;40.55;;;9.80;99.90;;;;;;5083540;28;20044;-88
2024/03/22 00:38:32;;;;;;;48.92;42.38;;;9.80;99.90;;;;;;5051969;28;20052;-90
2024/03/22 00:40:58;;;;;;;45.47;40.10;;;9.80;99.90;;;;;;5053493;28;20048;-88
2024/03/22 00:43:24;;;;;;;47.88;42.65;;;9.90;99.90;;;;;;5066958;28;20522;-89
2024/03/22 00:45:49;;;;;;;47.20;40.00;;;9.80;99.90;;;;;;5069092;28;20040;-88
2024/03/22 00:48:16;;;;;;;46.75;41.20;;;9.90;99.90;;;;;;5052781;28;20110;-89
2024/03/22 00:50:42;;;;;;;47.65;41.08;;;9.90;99.90;;;;;;5053966;28;20035;-88
2024/03/22 00:53:09;;;;;;;50.08;44.58;;;9.90;99.90;;;;;;5067238;28;20719;-88
2024/03/22 00:55:35;;;;;;;51.30;45.33;;;9.90;99.90;;;;;;5066802;28;20051;-86
2024/03/22 00:58:01;;;;;;;50.72;45.13;;;9.90;99.90;;;;;;5063688;28;20463;-87
2024/03/22 01:00:27;;;;;;;49.40;43.42;;;9.90;99.90;;;;;;5051391;28;20048;-88
2024/03/22 01:02:53;;;;;;;54.05;46.53;;;9.90;99.90;;;;;;5047241;28;20052;-89
2024/03/22 01:05:19;;;;;;;51.58;43.55;;;9.90;99.90;;;;;;5063755;28;20115;-88
2024/03/22 01:07:45;;;;;;;53.75;46.58;;;9.90;99.90;;;;;;5052100;28;20041;-88
2024/03/22 01:10:11;;;;;;;54.20;46.67;;;10.00;99.90;;;;;;5062685;28;20083;-88
2024/03/22 01:12:40;;;;;;;54.17;46.00;;;9.90;99.90;;;;;;5051409;28;20032;-88
2024/03/22 01:15:07;;;;;;;55.63;47.05;;;10.00;99.90;;;;;;5069054;28;20043;-88
2024/03/22 01:17:33;;;;;;;55.55;47.33;;;10.00;99.90;;;;;;5049704;28;20842;-89
2024/03/22 01:20:02;;;;;;;57.00;48.97;;;10.00;99.90;;;;;;5051204;28;20056;-90
2024/03/22 01:22:28;;;;;;;54.53;45.83;;;10.00;99.90;;;;;;5066457;28;20090;-90
2024/03/22 01:25:02;;;;;;;55.05;46.35;;;10.00;99.90;;;;;;5067464;28;20075;-89
2024/03/22 01:27:28;;;;;;;57.72;47.60;;;10.00;99.90;;;;;;5051654;28;20058;-89
2024/03/22 01:29:54;;;;;;;59.50;48.58;;;10.10;99.90;;;;;;5053245;28;20060;-89
2024/03/22 01:32:20;;;;;;;58.33;47.75;;;10.10;99.90;;;;;;5062933;28;20536;-89
2024/03/22 01:34:45;;;;;;;62.80;50.38;;;10.10;99.90;;;;;;5063483;28;20080;-88
2024/03/22 01:37:11;;;;;;;58.55;49.60;;;10.10;99.90;;;;;;5052156;28;20703;-88
2024/03/22 01:39:37;;;;;;;59.30;50.25;;;10.10;99.90;;;;;;5051949;28;20051;-89
2024/03/22 01:42:03;;;;;;;61.47;51.20;;;10.10;99.90;;;;;;5052104;28;20039;-88
2024/03/22 01:44:32;;;;;;;62.70;51.33;;;10.10;99.90;;;;;;5052387;28;20079;-88
2024/03/22 01:47:00;;;;;;;63.85;52.70;;;10.20;99.90;;;;;;5050463;28;20055;-90
2024/03/22 01:49:27;;;;;;;62.20;51.90;;;10.20;99.90;;;;;;5068515;28;20040;-89
2024/03/22 01:51:53;;;;;;;60.85;51.92;;;10.20;99.90;;;;;;5050739;28;20127;-90
2024/03/22 01:54:20;;;;;;;61.85;53.08;;;10.20;99.90;;;;;;5067975;28;20033;-88
2024/03/22 01:56:47;;;;;;;64.13;53.92;;;10.20;99.90;;;;;;5067045;28;20045;-89
2024/03/22 01:59:13;;;;;;;63.17;53.10;;;10.20;99.90;;;;;;5066276;28;20043;-88
2024/03/22 02:01:39;;;;;;;61.83;52.38;;;10.20;99.90;;;;;;5067786;28;20036;-88
2024/03/22 02:04:09;;;;;;;66.80;54.58;;;10.30;99.90;;;;;;5042554;28;20127;-89
2024/03/22 02:06:35;;;;;;;68.82;53.50;;;10.40;99.90;;;;;;5064361;28;20070;-89
2024/03/22 02:09:00;;;;;;;64.22;53.25;;;10.30;99.90;;;;;;5050886;28;20159;-89
2024/03/22 02:11:27;;;;;;;67.93;53.80;;;10.30;99.90;;;;;;5058502;28;20044;-86
2024/03/22 02:13:53;;;;;;;66.80;55.10;;;10.30;99.90;;;;;;5066449;28;20101;-89
2024/03/22 02:16:21;;;;;;;67.05;53.83;;;10.30;99.90;;;;;;5061784;28;20131;-88
2024/03/22 02:18:47;;;;;;;65.38;53.88;;;10.40;99.90;;;;;;5051995;28;20043;-89
2024/03/22 02:21:12;;;;;;;66.15;54.58;;;10.40;99.90;;;;;;5066514;28;20041;-89
2024/03/22 02:23:39;;;;;;;64.25;54.65;;;10.40;99.90;;;;;;5067140;28;20051;-88
2024/03/22 02:26:55;;;;;;;67.72;55.92;;;10.30;99.90;;;;;;5048967;28;20064;-89
2024/03/22 02:29:21;;;;;;;66.13;53.38;;;10.40;99.90;;;;;;5081099;28;20040;-89
2024/03/22 02:31:47;;;;;;;63.72;54.35;;;10.50;99.90;;;;;;5050284;28;20060;-89
2024/03/22 02:34:12;;;;;;;67.88;55.55;;;10.50;99.90;;;;;;5047856;28;21245;-88
2024/03/22 02:36:39;;;;;;;71.18;54.97;;;10.50;99.90;;;;;;5047980;28;20098;-89
2024/03/22 02:39:05;;;;;;;75.47;57.38;;;10.50;99.90;;;;;;5071497;28;20041;-89
2024/03/22 02:41:31;;;;;;;71.35;56.60;;;10.50;99.90;;;;;;5066208;28;20105;-89
2024/03/22 02:43:56;;;;;;;67.50;54.83;;;10.50;99.90;;;;;;5064980;28;20033;-90
2024/03/22 02:46:22;;;;;;;74.05;57.50;;;10.50;99.90;;;;;;5044729;28;20698;-91
2024/03/22 02:48:48;;;;;;;70.88;57.60;;;10.60;99.90;;;;;;5064714;28;21629;-89
2024/03/22 02:51:14;;;;;;;72.00;56.55;;;10.60;99.90;;;;;;5046935;28;20036;-90
2024/03/22 02:53:39;;;;;;;74.57;59.08;;;10.60;99.90;;;;;;5063572;28;20044;-90
2024/03/22 02:56:05;;;;;;;69.38;56.53;;;10.60;99.90;;;;;;5048487;28;20051;-90
2024/03/22 02:58:32;;;;;;;70.90;56.95;;;10.60;99.90;;;;;;5051935;28;20037;-90
2024/03/22 03:00:58;;;;;;;71.20;57.55;;;10.60;99.90;;;;;;5050318;28;20055;-88
2024/03/22 03:03:23;;;;;;;76.07;59.88;;;10.60;99.90;;;;;;5061465;28;20041;-88
2024/03/22 03:05:49;;;;;;;73.22;56.42;;;10.60;99.90;;;;;;5061607;28;20499;-90
2024/03/22 03:08:15;;;;;;;73.22;58.72;;;10.60;99.90;;;;;;5056384;28;20041;-90
2024/03/22 03:10:41;;;;;;;72.28;57.70;;;10.60;99.90;;;;;;5053365;28;20048;-89
2024/03/22 03:13:07;;;;;;;71.35;56.72;;;10.60;99.90;;;;;;5061907;28;20037;-89
2024/03/22 03:15:36;;;;;;;70.68;57.72;;;10.60;99.90;;;;;;5072282;28;20518;-88
2024/03/22 03:18:01;;;;;;;71.85;55.55;;;10.70;99.90;;;;;;5046637;28;20134;-87
2024/03/22 03:20:27;;;;;;;70.05;55.75;;;10.60;99.90;;;;;;5061867;28;20407;-90
2024/03/22 03:22:53;;;;;;;75.13;58.60;;;10.60;99.90;;;;;;5063400;28;20048;-89
2024/03/22 03:25:19;;;;;;;73.32;56.03;;;10.60;99.90;;;;;;5051234;28;20385;-88
2024/03/22 03:27:45;;;;;;;77.05;57.65;;;10.60;99.90;;;;;;5063702;28;20035;-89
2024/03/22 03:30:11;;;;;;;76.22;58.72;;;10.60;99.90;;;;;;5045352;28;20420;-88
2024/03/22 03:32:36;;;;;;;76.53;57.75;;;10.70;99.90;;;;;;5035803;28;20048;-89
2024/03/22 03:35:02;;;;;;;75.35;57.67;;;10.60;99.90;;;;;;5066643;28;20656;-89
2024/03/22 03:37:28;;;;;;;80.55;59.05;;;10.70;99.90;;;;;;5049918;28;20048;-89
2024/03/22 03:39:54;;;;;;;73.63;57.25;;;10.70;99.90;;;;;;5059659;28;20056;-90
2024/03/22 03:42:23;;;;;;;76.05;58.33;;;10.70;99.90;;;;;;5049156;28;20464;-90
2024/03/22 03:44:49;;;;;;;73.47;58.75;;;10.70;99.90;;;;;;5038647;28;20049;-91
2024/03/22 03:47:15;;;;;;;77.75;57.33;;;10.70;99.90;;;;;;5050231;28;20037;-90
2024/03/22 03:49:41;;;;;;;76.80;58.58;;;10.70;99.90;;;;;;5044512;28;20072;-90
2024/03/22 03:52:06;;;;;;;77.97;58.88;;;10.80;99.90;;;;;;5068636;28;20083;-90
2024/03/22 03:54:32;;;;;;;77.95;60.13;;;10.70;99.90;;;;;;5050175;28;20106;-89
2024/03/22 03:56:58;;;;;;;76.70;59.85;;;10.80;99.90;;;;;;5073777;28;20059;-92
2024/03/22 03:59:25;;;;;;;78.97;59.67;;;10.80;99.90;;;;;;5059735;28;20083;-90
2024/03/22 04:01:53;;;;;;;75.00;58.28;;;10.70;99.90;;;;;;5067204;28;20036;-90
2024/03/22 04:04:18;;;;;;;78.55;60.72;;;10.70;99.90;;;;;;5067125;28;20056;-90
2024/03/22 04:06:45;;;;;;;76.05;57.28;;;10.80;99.90;;;;;;5057945;28;20077;-90
2024/03/22 04:09:10;;;;;;;79.20;58.22;;;10.70;99.90;;;;;;5079143;28;20477;-89
2024/03/22 04:11:40;;;;;;;76.43;57.65;;;10.70;99.90;;;;;;5062641;28;20051;-88
2024/03/22 04:14:06;;;;;;;76.07;58.13;;;10.70;99.90;;;;;;5072516;28;20044;-90
2024/03/22 04:16:32;;;;;;;75.85;59.60;;;10.70;99.90;;;;;;5056926;28;20125;-91
2024/03/22 04:18:59;;;;;;;80.38;59.78;;;10.70;99.90;;;;;;5043509;28;20070;-90
2024/03/22 04:21:33;;;;;;;74.53;56.25;;;10.70;99.90;;;;;;5064276;28;20064;-90
2024/03/22 04:24:02;;;;;;;76.22;56.08;;;10.70;99.90;;;;;;5048276;28;20072;-90
2024/03/22 04:26:31;;;;;;;77.45;57.72;;;10.70;99.90;;;;;;5057033;28;20052;-89
2024/03/22 04:28:56;;;;;;;72.60;55.58;;;10.70;99.90;;;;;;5055282;28;20041;-89
2024/03/22 04:31:22;;;;;;;76.80;55.25;;;10.70;99.90;;;;;;5067417;28;20106;-90
2024/03/22 04:33:51;;;;;;;82.30;56.55;;;10.70;99.90;;;;;;5049797;28;20098;-90
2024/03/22 04:36:17;;;;;;;75.05;54.90;;;10.70;99.90;;;;;;5080376;28;20382;-88
2024/03/22 04:38:43;;;;;;;75.50;54.80;;;10.70;99.90;;;;;;5045912;28;20051;-89
2024/03/22 04:41:09;;;;;;;80.82;55.80;;;10.80;99.90;;;;;;5085778;28;20040;-89
2024/03/22 04:43:44;;;;;;;73.78;54.03;;;10.80;99.90;;;;;;5075466;28;20548;-89
2024/03/22 04:46:10;;;;;;;72.63;52.95;;;10.70;99.90;;;;;;5081418;28;20580;-89
2024/03/22 04:48:35;;;;;;;73.88;54.05;;;10.70;99.90;;;;;;5066389;28;20055;-91
2024/03/22 04:51:02;;;;;;;78.10;54.20;;;10.70;99.90;;;;;;5055668;28;20041;-90
2024/03/22 04:53:29;;;;;;;79.82;53.08;;;10.70;99.90;;;;;;5053787;28;20173;-89
2024/03/22 04:55:55;;;;;;;73.05;52.80;;;10.70;99.90;;;;;;5079382;28;20049;-90
2024/03/22 04:58:21;;;;;;;69.38;52.20;;;10.70;99.90;;;;;;5052250;28;20056;-91
2024/03/22 05:00:56;;;;;;;73.65;52.30;;;10.80;99.90;;;;;;5046367;28;20141;-88
2024/03/22 05:03:25;;;;;;;74.88;52.25;;;10.70;99.90;;;;;;5045855;28;20056;-87
2024/03/22 05:05:54;;;;;;;71.47;51.53;;;10.70;99.90;;;;;;5039801;28;20047;-88
2024/03/22 05:08:23;;;;;;;74.37;52.63;;;10.80;99.90;;;;;;5052685;28;20057;-88
2024/03/22 05:10:49;;;;;;;74.18;50.58;;;10.80;99.90;;;;;;5063707;28;20368;-90
2024/03/22 05:13:15;;;;;;;74.20;51.97;;;10.70;99.90;;;;;;5047205;28;20123;-89
2024/03/22 05:15:41;;;;;;;79.97;52.20;;;10.70;99.90;;;;;;5066885;28;20041;-88
2024/03/22 05:18:07;;;;;;;79.45;53.00;;;10.80;99.90;;;;;;5074332;28;20036;-87
2024/03/22 05:20:32;;;;;;;74.20;53.10;;;10.70;99.90;;;;;;5055887;28;20041;-87
2024/03/22 05:22:58;;;;;;;73.90;50.25;;;10.70;99.90;;;;;;5050338;28;20386;-87
2024/03/22 05:25:25;;;;;;;75.70;52.15;;;10.70;99.90;;;;;;5043712;28;20044;-88
2024/03/22 05:27:52;;;;;;;74.22;50.97;;;10.70;99.90;;;;;;5035217;28;20037;-89
2024/03/22 05:30:17;;;;;;;76.63;50.28;;;10.70;99.90;;;;;;5038943;28;20115;-89
2024/03/22 05:32:43;;;;;;;74.47;51.55;;;10.60;99.90;;;;;;5067577;28;20793;-90
2024/03/22 05:35:09;;;;;;;74.45;52.00;;;10.60;99.90;;;;;;5048358;28;20075;-88
2024/03/22 05:37:35;;;;;;;77.90;53.00;;;10.60;99.90;;;;;;5051247;28;20119;-87
2024/03/22 05:40:04;;;;;;;77.50;52.28;;;10.60;99.90;;;;;;5059126;28;20091;-89
2024/03/22 05:42:31;;;;;;;77.00;52.72;;;10.60;99.90;;;;;;5057692;28;20098;-89
2024/03/22 05:45:00;;;;;;;69.32;48.95;;;10.60;99.90;;;;;;5046281;28;20125;-89
2024/03/22 05:47:26;;;;;;;72.72;50.92;;;10.60;99.90;;;;;;5060946;28;20051;-88
2024/03/22 05:49:52;;;;;;;77.53;52.40;;;10.60;99.90;;;;;;5053344;28;20130;-88
2024/03/22 05:52:18;;;;;;;83.00;53.13;;;10.50;99.90;;;;;;5057867;28;20059;-86
2024/03/22 05:54:44;;;;;;;81.55;52.50;;;10.60;99.90;;;;;;5036696;28;20516;-86
2024/03/22 05:57:10;;;;;;;79.93;51.15;;;10.50;99.90;;;;;;5070100;28;20131;-86
2024/03/22 05:59:36;;;;;;;81.60;51.42;;;10.50;99.90;;;;;;5073752;28;20048;-87
2024/03/22 06:02:02;;;;;;;81.20;52.97;;;10.50;99.90;;;;;;5050507;28;20040;-87
2024/03/22 06:04:28;;;;;;;83.00;52.28;;;10.50;99.90;;;;;;5046406;28;20057;-87
2024/03/22 06:06:59;;;;;;;81.82;51.70;;;10.50;99.90;;;;;;5063346;28;20037;-87
2024/03/22 06:09:45;;;;;;;67.95;47.40;;;10.50;99.90;;;;;;5043395;28;20095;-86
2024/03/22 06:12:14;;;;;;;79.22;51.25;;;10.40;99.90;;;;;;5053270;28;20137;-86
2024/03/22 06:14:44;;;;;;;75.40;49.08;;;10.40;99.90;;;;;;5075613;28;20037;-86
2024/03/22 06:17:10;;;;;;;80.15;52.33;;;10.40;99.90;;;;;;5061155;28;20760;-85
2024/03/22 06:19:36;;;;;;;77.30;49.92;;;10.40;99.90;;;;;;5058953;28;20048;-86
2024/03/22 06:22:03;;;;;;;78.47;50.35;;;10.40;99.90;;;;;;5048098;28;20041;-86
2024/03/22 06:24:29;;;;;;;77.18;49.33;;;10.40;99.90;;;;;;5057148;28;20049;-85
2024/03/22 06:26:55;;;;;;;73.50;48.38;;;10.40;99.90;;;;;;5049953;28;20199;-87
2024/03/22 06:29:21;;;;;;;71.60;48.65;;;10.40;99.90;;;;;;5068804;28;20570;-85
2024/03/22 06:31:47;;;;;;;80.57;49.83;;;10.30;99.90;;;;;;5056778;28;20032;-88
2024/03/22 06:34:13;;;;;;;69.15;46.60;;;10.40;99.90;;;;;;5075544;28;20075;-85
2024/03/22 06:36:38;;;;;;;70.07;47.00;;;10.40;99.90;;;;;;5060364;28;20045;-84
2024/03/22 06:39:10;;;;;;;67.28;45.83;;;10.40;99.90;;;;;;5059967;28;20040;-86
2024/03/22 06:41:37;;;;;;;63.38;44.67;;;10.40;99.90;;;;;;5060156;28;20054;-86
2024/03/22 06:44:03;;;;;;;63.05;44.40;;;10.40;99.90;;;;;;5038050;28;20099;-86
2024/03/22 06:46:29;;;;;;;61.60;45.30;;;10.40;99.90;;;;;;5041249;28;20046;-86
2024/03/22 06:48:55;;;;;;;70.40;45.88;;;10.40;99.90;;;;;;5048068;28;20128;-88
2024/03/22 06:51:20;;;;;;;62.75;44.90;;;10.40;99.90;;;;;;5062447;28;20041;-88
2024/03/22 06:54:10;;;;;;;64.45;44.72;;;10.40;99.90;;;;;;5062068;28;20041;-89
2024/03/22 06:56:36;;;;;;;66.38;44.35;;;10.40;99.90;;;;;;5046816;28;20136;-90
2024/03/22 06:59:02;;;;;;;62.55;42.45;;;10.40;99.90;;;;;;5050058;28;20101;-88
2024/03/22 07:01:28;;;;;;;60.53;42.63;;;10.40;99.90;;;;;;5064725;28;20476;-89
2024/03/22 07:03:54;;;;;;;61.78;41.90;;;10.40;99.90;;;;;;5062283;28;20040;-90
2024/03/22 07:06:20;;;;;;;60.85;41.10;;;10.40;99.90;;;;;;5066375;28;20094;-87
2024/03/22 07:08:46;;;;;;;58.20;42.20;;;10.40;99.90;;;;;;5067926;28;20051;-90
2024/03/22 07:11:12;;;;;;;57.70;39.83;;;10.40;99.90;;;;;;5048905;28;20044;-90
2024/03/22 07:13:40;;;;;;;48.75;37.00;;;10.40;99.90;;;;;;5066865;28;20068;-89
2024/03/22 07:16:06;;;;;;;51.28;39.28;;;10.40;99.90;;;;;;5050335;28;20117;-90
2024/03/22 07:18:32;;;;;;;49.97;37.75;;;10.40;99.90;;;;;;5050716;28;20072;-89
2024/03/22 07:21:01;;;;;;;49.10;36.88;;;10.40;99.90;;;;;;5048856;28;20131;-88
2024/03/22 07:23:27;;;;;;;53.65;36.70;;;10.40;99.90;;;;;;5074282;28;20037;-90
2024/03/22 07:25:52;;;;;;;56.13;37.72;;;10.40;99.90;;;;;;5057533;28;20186;-89
2024/03/22 07:28:18;;;;;;;57.70;37.95;;;10.40;99.90;;;;;;5055134;28;20553;-88
2024/03/22 07:30:44;;;;;;;49.97;35.78;;;10.40;99.90;;;;;;5057221;28;20039;-90
2024/03/22 07:33:16;;;;;;;50.55;36.83;;;10.40;99.90;;;;;;5053171;28;20051;-89
2024/03/22 07:35:44;;;;;;;48.83;35.65;;;10.40;99.90;;;;;;5074583;28;20041;-89
2024/03/22 07:38:10;;;;;;;47.53;34.67;;;10.40;99.90;;;;;;5057700;28;20032;-87
2024/03/22 07:40:36;;;;;;;45.58;33.08;;;10.40;99.90;;;;;;5069361;28;20079;-91
2024/03/22 07:43:06;;;;;;;48.95;32.67;;;10.40;99.90;;;;;;5067774;28;20060;-87
2024/03/22 07:45:39;;;;;;;;;;;10.40;99.90;;;;;;5057282;28;20060;-91
2024/03/22 07:48:05;;;;;;;45.80;32.50;;;10.40;99.90;;;;;;5072912;28;19928;-86
2024/03/22 07:50:31;;;;;;;42.10;30.52;;;10.40;99.90;;;;;;5067901;28;20059;-87
2024/03/22 07:52:58;;;;;;;45.35;31.42;;;10.40;99.90;;;;;;5055925;28;20563;-88
2024/03/22 07:55:23;;;;;;;39.83;29.45;;;10.40;99.90;;;;;;5061073;28;20056;-88
2024/03/22 07:57:49;;;;;;;40.97;29.35;;;10.40;99.90;;;;;;5079955;28;20044;-89
2024/03/22 08:00:15;;;;;;;48.78;29.90;;;10.50;99.90;;;;;;5066307;28;20041;-89
2024/03/22 08:02:41;;;;;;;36.50;26.30;;;10.50;99.90;;;;;;5049785;28;20044;-87
2024/03/22 08:05:10;;;;;;;37.80;28.70;;;10.50;99.90;;;;;;5062822;28;20045;-89
2024/03/22 08:07:36;;;;;;;43.40;26.55;;;10.50;99.90;;;;;;5067844;28;20055;-88
2024/03/22 08:10:02;;;;;;;44.03;28.35;;;10.50;99.90;;;;;;5062629;28;20036;-89
2024/03/22 08:12:28;;;;;;;43.80;27.52;;;10.50;99.90;;;;;;5050134;28;20201;-86
2024/03/22 08:14:55;;;;;;;41.78;28.45;;;10.50;99.90;;;;;;5064971;28;20111;-88
2024/03/22 08:17:21;;;;;;;41.05;27.42;;;10.50;99.90;;;;;;5049208;28;20041;-86
2024/03/22 08:19:47;;;;;;;44.53;29.17;;;10.40;99.90;;;;;;5065477;28;20036;-85
2024/03/22 08:22:13;;;;;;;39.30;28.85;;;10.40;99.90;;;;;;5063012;28;20063;-86
2024/03/22 08:24:39;;;;;;;52.33;29.92;;;10.50;99.90;;;;;;5064619;28;20815;-88
2024/03/22 08:27:05;;;;;;;51.85;30.92;;;10.40;99.90;;;;;;5049604;28;20059;-88
2024/03/22 08:29:34;;;;;;;48.72;30.75;;;10.40;99.90;;;;;;5062406;28;20044;-90
2024/03/22 08:32:04;;;;;;;51.40;32.08;;;10.40;99.90;;;;;;5064855;28;20052;-89
2024/03/22 08:34:30;;;;;;;;;;;10.40;99.90;;;;;;5049745;28;20064;-87
2024/03/22 08:36:56;;;;;;;49.50;30.75;;;10.40;99.90;;;;;;5044482;28;19952;-88
2024/03/22 08:39:22;;;;;;;54.53;32.22;;;10.40;99.90;;;;;;5065886;28;20040;-87
2024/03/22 08:41:49;;;;;;;44.40;28.98;;;10.40;99.90;;;;;;5051340;28;20045;-89
2024/03/22 08:44:15;;;;;;;52.97;32.40;;;10.40;99.90;;;;;;5066833;28;20032;-89
2024/03/22 08:46:41;;;;;;;51.50;32.78;;;10.40;99.90;;;;;;5051139;28;20041;-89
2024/03/22 08:49:06;;;;;;;52.58;33.38;;;10.40;99.90;;;;;;5060952;28;20037;-87
2024/03/22 08:51:33;;;;;;;37.53;29.05;;;10.40;99.90;;;;;;5051655;28;20098;-89
2024/03/22 08:54:00;;;;;;;55.13;33.15;;;10.40;99.90;;;;;;5044485;28;20131;-90
2024/03/22 08:56:26;;;;;;;59.22;35.35;;;10.40;99.90;;;;;;5067315;28;20197;-88
2024/03/22 08:58:52;;;;;;;56.13;33.85;;;10.40;99.90;;;;;;5047629;28;20493;-89
2024/03/22 09:01:18;;;;;;;56.22;33.25;;;10.40;99.90;;;;;;5051837;28;20045;-90
2024/03/22 09:03:46;;;;;;;56.63;33.47;;;10.30;99.90;;;;;;5044446;28;20183;-88
2024/03/22 09:06:12;;;;;;;51.28;31.73;;;10.40;99.90;;;;;;5046923;28;20064;-88
2024/03/22 09:08:38;;;;;;;56.05;33.22;;;10.30;99.90;;;;;;5043722;28;20102;-88
2024/03/22 09:11:04;;;;;;;50.38;31.73;;;10.30;99.90;;;;;;5060174;28;20068;-87
2024/03/22 09:13:30;;;;;;;41.75;29.33;;;10.40;99.90;;;;;;5059806;28;20044;-86
2024/03/22 09:15:58;;;;;;;40.03;29.02;;;10.40;99.90;;;;;;5061197;28;20155;-86
2024/03/22 09:18:27;;;;;;;43.13;27.75;;;10.30;99.90;;;;;;5058352;28;20641;-89
2024/03/22 09:20:58;;;;;;;37.28;25.88;;;10.40;99.90;;;;;;5059098;28;20044;-88
2024/03/22 09:23:24;;;;;;;41.20;26.42;;;10.40;99.90;;;;;;5056855;28;20053;-87
2024/03/22 09:25:50;;;;;;;39.97;25.83;;;10.30;99.90;;;;;;5061127;28;20330;-90
2024/03/22 09:28:15;;;;;;;39.30;25.15;;;10.40;99.90;;;;;;5046201;28;20055;-88
2024/03/22 09:30:43;;;;;;;37.42;26.67;;;10.40;99.90;;;;;;5063204;28;20071;-89
2024/03/22 09:33:09;;;;;;;44.22;28.27;;;10.40;99.90;;;;;;5047084;28;20114;-87
2024/03/22 09:35:35;;;;;;;46.20;27.65;;;10.40;99.90;;;;;;5048585;28;20048;-88
2024/03/22 09:38:02;;;;;;;38.00;24.95;;;10.40;99.90;;;;;;5062923;28;20047;-86
2024/03/22 09:40:28;;;;;;;38.72;25.55;;;10.40;99.90;;;;;;5047503;28;20908;-85
2024/03/22 09:42:56;;;;;;;42.95;26.58;;;10.40;99.90;;;;;;5042777;28;20092;-87
2024/03/22 09:45:22;;;;;;;36.55;25.08;;;10.50;99.90;;;;;;5061821;28;20048;-88
2024/03/22 09:47:50;;;;;;;31.20;22.90;;;10.40;99.90;;;;;;5057997;28;20059;-87
2024/03/22 09:50:15;;;;;;;35.38;23.90;;;10.40;99.90;;;;;;5044183;28;20444;-88
2024/03/22 09:52:43;;;;;;;33.72;23.02;;;10.40;99.90;;;;;;5050220;28;20048;-87
2024/03/22 09:55:09;;;;;;;34.28;23.05;;;10.40;99.90;;;;;;5065786;28;20036;-87
2024/03/22 09:57:40;;;;;;;35.80;24.25;;;10.40;99.90;;;;;;5060919;28;20044;-86
2024/03/22 10:00:13;;;;;;;39.75;24.70;;;10.40;99.90;;;;;;5045471;28;20043;-87
2024/03/22 10:02:40;;;;;;;36.55;23.02;;;10.40;99.90;;;;;;5077905;28;20041;-88
2024/03/22 10:05:06;;;;;;;29.15;20.52;;;10.40;99.90;;;;;;5049603;28;20555;-88
2024/03/22 10:07:32;;;;;;;29.90;20.85;;;10.40;99.90;;;;;;5064063;28;20050;-88
2024/03/22 10:09:59;;;;;;;29.10;19.85;;;10.40;99.90;;;;;;5048194;28;20040;-86
2024/03/22 10:12:27;;;;;;;25.45;19.40;;;10.50;99.90;;;;;;5080077;28;20148;-88
2024/03/22 10:14:53;;;;;;;28.80;19.38;;;10.40;99.90;;;;;;5044297;28;20106;-87
2024/03/22 10:17:20;;;;;;;23.55;17.73;;;10.40;99.90;;;;;;5057519;28;20140;-87
2024/03/22 10:19:50;;;;;;;28.38;19.33;;;10.40;99.90;;;;;;5063676;28;20033;-88
2024/03/22 10:22:18;;;;;;;25.73;18.33;;;10.50;99.90;;;;;;5060831;28;20041;-88
2024/03/22 10:24:45;;;;;;;21.67;15.77;;;10.50;99.90;;;;;;5045997;28;20294;-87
2024/03/22 10:27:11;;;;;;;22.20;17.45;;;10.50;99.90;;;;;;5046139;28;20036;-86
2024/03/22 10:29:37;;;;;;;25.65;18.20;;;10.40;99.90;;;;;;5063771;28;20055;-87
2024/03/22 10:32:03;;;;;;;25.90;17.17;;;10.40;99.90;;;;;;5061761;28;20876;-87
2024/03/22 10:34:32;;;;;;;23.98;16.48;;;10.50;99.90;;;;;;5046877;28;20044;-86
2024/03/22 10:37:03;;;;;;;23.80;16.20;;;10.40;99.90;;;;;;5045777;28;20115;-87
2024/03/22 10:39:30;;;;;;;21.48;16.08;;;10.40;99.90;;;;;;5043975;28;20041;-88
2024/03/22 10:41:56;;;;;;;24.90;16.35;;;10.50;99.90;;;;;;5061103;28;20048;-87
2024/03/22 10:44:22;;;;;;;21.30;15.23;;;10.40;99.90;;;;;;5062868;28;20064;-87
2024/03/22 10:46:49;;;;;;;19.42;13.95;;;10.50;99.90;;;;;;5062361;28;20036;-87
2024/03/22 10:49:20;;;;;;;19.50;14.57;;;10.50;99.90;;;;;;5061734;28;20044;-87
2024/03/22 10:51:58;;;;;;;18.60;14.02;;;10.50;99.90;;;;;;5064198;28;20099;-89
2024/03/22 10:54:50;;;;;;;20.55;14.32;;;10.50;99.90;;;;;;5046620;28;20071;-89
2024/03/22 10:57:18;;;;;;;18.50;13.05;;;10.50;99.90;;;;;;5056157;28;20099;-87
2024/03/22 10:59:46;;;;;;;18.70;12.52;;;10.50;99.90;;;;;;5068487;28;20048;-89
2024/03/22 11:02:13;;;;;;;19.80;12.75;;;10.50;99.90;;;;;;5046926;28;20064;-89
2024/03/22 11:04:39;;;;;;;14.20;9.65;;;10.50;99.90;;;;;;5064734;28;20056;-87
2024/03/22 11:07:06;;;;;;;18.17;11.77;;;10.50;99.90;;;;;;5061766;28;20032;-89
2024/03/22 11:09:31;;;;;;;17.45;12.13;;;10.50;99.90;;;;;;5048147;28;20134;-90
2024/03/22 11:11:59;;;;;;;18.02;12.32;;;10.60;99.90;;;;;;5057920;28;20491;-88
2024/03/22 11:14:25;;;;;;;17.27;11.77;;;10.50;99.90;;;;;;5032275;28;20059;-88
2024/03/22 11:16:50;;;;;;;14.40;10.57;;;10.60;99.90;;;;;;5058220;28;20045;-89
2024/03/22 11:19:17;;;;;;;14.40;10.05;;;10.50;99.90;;;;;;5048249;28;20076;-90
2024/03/22 11:21:42;;;;;;;17.75;11.20;;;10.60;99.90;;;;;;5035855;28;20532;-87
2024/03/22 11:24:09;;;;;;;13.02;9.88;;;10.60;99.90;;;;;;5036403;28;20106;-89
2024/03/22 11:26:35;;;;;;;15.30;10.38;;;10.60;99.90;;;;;;5048156;28;20040;-89
2024/03/22 11:29:01;;;;;;;15.93;10.20;;;10.60;99.90;;;;;;5053754;28;20045;-88
2024/03/22 11:31:28;;;;;;;11.73;9.32;;;10.60;99.90;;;;;;5040944;28;20561;-87
2024/03/22 11:33:54;;;;;;;12.75;10.07;;;10.60;99.90;;;;;;5049904;28;20068;-88
2024/03/22 11:36:20;;;;;;;13.32;9.48;;;10.60;99.90;;;;;;5058105;28;20499;-88
2024/03/22 11:38:50;;;;;;;13.95;9.88;;;10.60;99.90;;;;;;5053378;28;20044;-87
2024/03/22 11:41:26;;;;;;;14.57;10.25;;;10.60;99.90;;;;;;5052959;28;20049;-88
2024/03/22 11:43:52;;;;;;;11.52;8.85;;;10.60;99.90;;;;;;5041980;28;20044;-88
2024/03/22 11:46:19;;;;;;;13.13;8.23;;;10.60;99.90;;;;;;5049185;28;20041;-87
2024/03/22 11:48:52;;;;;;;11.93;8.43;;;10.60;99.90;;;;;;5049053;28;20063;-90
2024/03/22 11:51:18;;;;;;;11.40;8.40;;;10.60;99.90;;;;;;5055360;28;20059;-89
2024/03/22 11:53:56;;;;;;;10.02;8.23;;;10.60;99.90;;;;;;5033842;28;20079;-88
2024/03/22 11:56:22;;;;;;;11.68;8.15;;;10.60;99.90;;;;;;5063394;28;20052;-89
2024/03/22 11:58:48;;;;;;;10.57;7.88;;;10.60;99.90;;;;;;5058997;28;20511;-89
2024/03/22 12:01:19;;;;;;;10.93;7.88;;;10.70;99.90;;;;;;5060295;28;20036;-89
2024/03/22 12:03:47;;;;;;;12.35;9.07;;;10.60;99.90;;;;;;5052212;28;20064;-88
2024/03/22 12:06:12;;;;;;;11.07;8.55;;;10.60;99.90;;;;;;5060193;28;20505;-87
2024/03/22 12:08:42;;;;;;;11.02;8.27;;;10.60;99.90;;;;;;5060900;28;20041;-88
2024/03/22 12:11:09;;;;;;;10.13;7.10;;;10.60;99.90;;;;;;5069185;28;20534;-88
2024/03/22 12:13:35;;;;;;;9.07;6.72;;;10.60;99.90;;;;;;5050019;28;20551;-87
2024/03/22 12:16:02;;;;;;;10.95;5.57;;;10.50;99.90;;;;;;5059095;28;20044;-87
2024/03/22 12:18:27;;;;;;;8.55;4.28;;;10.50;99.90;;;;;;5068367;28;20053;-87
2024/03/22 12:20:53;;;;;;;8.55;4.82;;;10.40;99.90;;;;;;5049310;28;20102;-87
2024/03/22 12:23:19;;;;;;;7.57;4.07;;;10.40;99.90;;;;;;5057392;28;20079;-88
2024/03/22 12:25:45;;;;;;;7.45;3.53;;;10.30;99.90;;;;;;5036321;28;20382;-89
2024/03/22 12:28:11;;;;;;;10.55;3.90;;;10.20;99.90;;;;;;5055342;28;20040;-86
2024/03/22 12:30:37;;;;;;;9.32;3.80;;;10.20;99.90;;;;;;5069206;28;20049;-88